createdAt,value
2023-05-19T00:03:21.826Z,38.46
2023-05-19T00:08:24.673Z,38.36
2023-05-19T00:13:27.167Z,38.40
2023-05-19T00:18:29.837Z,38.37
2023-05-19T00:23:31.491Z,38.35
2023-05-19T00:28:33.122Z,38.91
2023-05-19T00:33:34.873Z,38.80
2023-05-19T00:38:37.104Z,38.98
2023-05-19T00:43:38.694Z,38.92
2023-05-19T00:48:40.368Z,39.04
2023-05-19T00:53:43.925Z,39.26
2023-05-19T00:58:46.059Z,39.23
2023-05-19T01:03:48.481Z,39.21
2023-05-19T01:08:51.649Z,39.18
2023-05-19T01:13:53.268Z,39.25
2023-05-19T01:19:14.174Z,39.47
2023-05-19T01:24:37.333Z,39.40
2023-05-19T01:30:00.321Z,39.72
2023-05-19T01:35:04.675Z,39.92
2023-05-19T01:40:08.342Z,39.81
2023-05-19T01:45:10.620Z,39.90
2023-05-19T01:50:12.555Z,40.03
2023-05-19T01:55:14.227Z,40.16
2023-05-19T02:00:31.036Z,40.33
2023-05-19T02:05:41.775Z,40.36
2023-05-19T02:10:49.360Z,40.52
2023-05-19T02:15:54.603Z,40.60
2023-05-19T02:20:56.209Z,40.73
2023-05-19T02:25:59.221Z,40.61
2023-05-19T02:31:01.477Z,40.81
2023-05-19T02:36:04.399Z,40.97
2023-05-19T02:41:06.025Z,40.87
2023-05-19T02:46:07.689Z,41.07
2023-05-19T02:51:10.251Z,41.25
2023-05-19T02:56:11.984Z,41.47
2023-05-19T03:01:13.589Z,41.42
2023-05-19T03:06:15.600Z,41.49
2023-05-19T03:11:17.645Z,41.53
2023-05-19T03:16:19.220Z,41.68
2023-05-19T03:21:20.890Z,41.63
2023-05-19T03:26:23.144Z,41.62
2023-05-19T03:31:26.716Z,41.58
2023-05-19T03:36:32.231Z,41.50
2023-05-19T03:41:34.947Z,41.41
2023-05-19T03:46:37.585Z,41.29
2023-05-19T03:51:54.570Z,41.25
2023-05-19T03:57:05.053Z,41.55
2023-05-19T04:02:08.343Z,41.51
2023-05-19T04:07:10.101Z,41.88
2023-05-19T04:12:12.761Z,41.33
2023-05-19T04:17:14.456Z,42.08
2023-05-19T04:22:16.133Z,42.22
2023-05-19T04:27:18.214Z,42.40
2023-05-19T04:32:19.755Z,42.36
2023-05-19T04:37:21.589Z,42.35
2023-05-19T04:42:26.128Z,42.62
2023-05-19T04:47:30.038Z,42.60
2023-05-19T04:52:32.175Z,42.43
2023-05-19T04:57:34.116Z,42.52
2023-05-19T05:02:37.061Z,42.25
2023-05-19T05:07:39.250Z,42.33
2023-05-19T05:12:41.365Z,42.84
2023-05-19T05:17:43.691Z,42.68
2023-05-19T05:22:45.681Z,42.81
2023-05-19T05:27:48.367Z,42.61
2023-05-19T05:32:50.017Z,42.69
2023-05-19T05:38:04.197Z,42.79
2023-05-19T05:43:06.123Z,42.53
2023-05-19T05:48:12.496Z,42.49
2023-05-19T05:53:19.088Z,42.54
2023-05-19T05:58:22.756Z,42.51
2023-05-19T06:03:26.107Z,42.57
2023-05-19T06:08:29.245Z,42.90
2023-05-19T06:13:30.955Z,42.64
2023-05-19T06:18:32.719Z,42.62
2023-05-19T06:23:36.105Z,42.89
2023-05-19T06:28:39.564Z,42.62
2023-05-19T06:33:41.118Z,42.71
2023-05-19T06:38:42.717Z,42.80
2023-05-19T06:43:44.812Z,42.87
2023-05-19T06:48:49.120Z,43.03
2023-05-19T06:53:53.280Z,42.65
2023-05-19T06:58:54.900Z,42.66
2023-05-19T07:04:00.891Z,42.86
2023-05-19T07:09:05.199Z,42.74
2023-05-19T07:14:07.239Z,42.21
2023-05-19T07:19:08.987Z,42.39
2023-05-19T07:24:10.905Z,42.34
2023-05-19T07:29:12.582Z,42.33
2023-05-19T07:34:14.144Z,42.13
2023-05-19T07:39:15.784Z,42.05
2023-05-19T07:44:17.348Z,41.96
2023-05-19T07:49:19.093Z,42.34
2023-05-19T07:54:21.220Z,42.48
2023-05-19T07:59:22.928Z,42.46
2023-05-19T08:04:24.540Z,42.10
2023-05-19T08:09:26.192Z,41.95
2023-05-19T08:14:27.994Z,41.53
2023-05-19T08:19:29.636Z,41.34
2023-05-19T08:24:32.749Z,40.70
2023-05-19T08:29:34.336Z,41.29
2023-05-19T08:34:36.046Z,41.05
2023-05-19T08:39:37.743Z,40.77
2023-05-19T08:44:40.130Z,40.60
2023-05-19T08:49:51.909Z,40.46
2023-05-19T08:54:57.103Z,40.63
2023-05-19T08:59:59.366Z,40.85
2023-05-19T09:05:01.428Z,40.19
2023-05-19T09:10:04.328Z,40.42
2023-05-19T09:15:07.771Z,40.72
2023-05-19T09:20:11.531Z,40.77
2023-05-19T09:25:23.645Z,40.47
2023-05-19T09:30:26.008Z,40.55
2023-05-19T09:35:27.589Z,40.41
2023-05-19T09:40:29.175Z,40.24
2023-05-19T09:45:30.776Z,40.25
2023-05-19T09:50:32.829Z,40.05
2023-05-19T09:55:34.643Z,39.94
2023-05-19T10:00:38.295Z,39.98
2023-05-19T10:05:41.627Z,40.49
2023-05-19T10:10:46.233Z,40.46
2023-05-19T10:15:58.241Z,39.25
2023-05-19T10:21:02.291Z,39.94
2023-05-19T10:26:06.539Z,40.10
2023-05-19T10:31:13.403Z,39.64
2023-05-19T10:36:29.527Z,39.09
2023-05-19T10:41:47.111Z,39.05
2023-05-19T10:46:48.895Z,38.80
2023-05-19T10:51:54.896Z,39.26
2023-05-19T10:56:56.754Z,39.14
2023-05-19T11:02:06.436Z,39.56
2023-05-19T11:07:10.530Z,39.20
2023-05-19T11:12:12.145Z,39.31
2023-05-19T11:17:15.547Z,39.10
2023-05-19T11:22:17.044Z,39.01
2023-05-19T11:27:32.966Z,38.62
2023-05-19T11:32:35.854Z,39.03
2023-05-19T11:37:37.536Z,39.49
2023-05-19T11:42:39.192Z,39.51
2023-05-19T11:47:57.277Z,39.21
2023-05-19T11:53:02.613Z,39.07
2023-05-19T11:58:05.831Z,38.82
2023-05-19T12:03:09.129Z,39.25
2023-05-19T12:08:12.349Z,38.90
2023-05-19T12:13:14.820Z,39.04
2023-05-19T12:18:16.359Z,38.96
2023-05-19T12:23:18.310Z,38.57
2023-05-19T12:28:20.067Z,38.76
2023-05-19T12:33:22.830Z,38.61
2023-05-19T12:38:24.396Z,38.60
2023-05-19T12:43:25.927Z,38.45
2023-05-19T12:48:28.545Z,38.44
2023-05-19T12:53:30.159Z,38.51
2023-05-19T12:58:34.291Z,38.38
2023-05-19T13:03:41.224Z,38.74
2023-05-19T13:08:42.835Z,38.39
2023-05-19T13:13:44.413Z,38.33
2023-05-19T13:18:46.063Z,38.00
2023-05-19T13:23:47.675Z,37.86
2023-05-19T13:28:49.339Z,37.71
2023-05-19T13:33:50.883Z,37.67
2023-05-19T13:38:52.630Z,37.49
2023-05-19T13:43:54.253Z,37.01
2023-05-19T13:48:55.888Z,37.40
2023-05-19T13:53:57.538Z,37.09
2023-05-19T13:58:59.161Z,36.92
2023-05-19T14:04:01.275Z,36.65
2023-05-19T14:09:03.243Z,36.95
2023-05-19T14:14:04.898Z,36.66
2023-05-19T14:19:06.730Z,36.45
2023-05-19T14:24:08.450Z,36.17
2023-05-19T14:29:10.021Z,36.63
2023-05-19T14:34:11.630Z,36.17
2023-05-19T14:39:13.321Z,36.10
2023-05-19T14:44:14.919Z,36.62
2023-05-19T14:49:16.488Z,36.32
2023-05-19T14:54:18.052Z,36.60
2023-05-19T14:59:19.609Z,36.40
2023-05-19T15:04:21.456Z,36.56
2023-05-19T15:09:23.192Z,36.34
2023-05-19T15:14:24.819Z,36.02
2023-05-19T15:19:26.948Z,36.14
2023-05-19T15:24:28.687Z,36.11
2023-05-19T15:29:30.230Z,36.47
2023-05-19T15:34:31.791Z,36.44
2023-05-19T15:39:33.706Z,36.43
2023-05-19T15:44:36.611Z,36.77
2023-05-19T15:49:38.226Z,36.96
2023-05-19T15:54:39.807Z,36.74
2023-05-19T15:59:41.422Z,36.47
2023-05-19T16:04:43.018Z,36.42
2023-05-19T16:09:44.702Z,36.06
2023-05-19T16:14:46.211Z,36.22
2023-05-19T16:19:47.784Z,36.28
2023-05-19T16:24:49.326Z,36.31
2023-05-19T16:29:50.990Z,36.29
2023-05-19T16:34:52.566Z,36.22
2023-05-19T16:39:54.171Z,36.56
2023-05-19T16:44:55.888Z,37.02
2023-05-19T16:49:57.452Z,37.29
2023-05-19T16:54:58.973Z,37.27
2023-05-19T17:00:00.470Z,36.87
2023-05-19T17:05:02.030Z,36.76
2023-05-19T17:10:03.886Z,36.59
2023-05-19T17:15:06.455Z,36.83
2023-05-19T17:20:08.543Z,36.84
2023-05-19T17:25:10.245Z,36.78
2023-05-19T17:30:13.308Z,36.65
2023-05-19T17:35:14.880Z,36.61
2023-05-19T17:40:16.543Z,36.61
2023-05-19T17:45:18.251Z,36.30
2023-05-19T17:50:19.918Z,36.33
2023-05-19T17:55:21.967Z,36.07
2023-05-19T18:00:24.995Z,35.98
2023-05-19T18:05:27.288Z,35.75
2023-05-19T18:10:31.359Z,35.98
2023-05-19T18:15:33.509Z,35.97
2023-05-19T18:20:35.302Z,36.07
2023-05-19T18:25:37.349Z,36.52
2023-05-19T18:30:38.942Z,36.52
2023-05-19T18:35:40.775Z,36.53
2023-05-19T18:40:45.462Z,36.99
2023-05-19T18:45:47.197Z,36.93
2023-05-19T18:50:48.753Z,37.53
2023-05-19T18:55:50.339Z,37.50
2023-05-19T19:00:55.181Z,37.60
2023-05-19T19:05:57.884Z,38.04
2023-05-19T19:11:01.060Z,37.95
2023-05-19T19:16:02.888Z,38.39
2023-05-19T19:21:05.956Z,38.31
2023-05-19T19:26:09.218Z,38.76
2023-05-19T19:31:10.844Z,39.00
2023-05-19T19:36:12.745Z,39.28
2023-05-19T19:41:14.279Z,39.13
2023-05-19T19:46:15.885Z,39.62
2023-05-19T19:51:17.557Z,39.63
2023-05-19T19:56:19.253Z,39.84
2023-05-19T20:01:23.445Z,40.03
2023-05-19T20:06:25.185Z,40.33
2023-05-19T20:11:26.852Z,40.53
2023-05-19T20:16:28.742Z,40.66
2023-05-19T20:21:30.499Z,40.81
2023-05-19T20:26:32.083Z,41.14
2023-05-19T20:31:33.644Z,41.14
2023-05-19T20:36:35.536Z,41.62
2023-05-19T20:41:37.292Z,41.80
2023-05-19T20:46:38.881Z,41.98
2023-05-19T20:51:40.545Z,42.21
2023-05-19T20:56:42.227Z,42.31
2023-05-19T21:01:45.567Z,42.38
2023-05-19T21:06:47.275Z,42.63
2023-05-19T21:11:49.037Z,42.79
2023-05-19T21:16:53.812Z,42.89
2023-05-19T21:21:56.943Z,43.16
2023-05-19T21:26:58.522Z,43.24
2023-05-19T21:32:00.130Z,43.27
2023-05-19T21:37:01.766Z,43.37
2023-05-19T21:42:03.955Z,43.61
2023-05-19T21:47:05.533Z,43.62
2023-05-19T21:52:07.878Z,43.71
2023-05-19T21:57:11.110Z,43.84
2023-05-19T22:02:12.778Z,43.96
2023-05-19T22:07:14.350Z,44.03
2023-05-19T22:12:15.880Z,44.25
2023-05-19T22:17:17.499Z,44.21
2023-05-19T22:22:19.010Z,44.47
2023-05-19T22:27:20.646Z,44.50
2023-05-19T22:32:22.173Z,44.55
2023-05-19T22:37:24.471Z,44.58
2023-05-19T22:42:26.829Z,44.82
2023-05-19T22:47:29.622Z,44.80
2023-05-19T22:52:31.283Z,44.93
2023-05-19T22:57:32.851Z,44.97
2023-05-19T23:02:34.485Z,44.94
2023-05-19T23:07:36.285Z,44.99
2023-05-19T23:12:37.842Z,45.07
2023-05-19T23:17:39.364Z,45.03
2023-05-19T23:22:41.063Z,45.26
2023-05-19T23:27:42.725Z,45.29
2023-05-19T23:32:47.323Z,45.46
2023-05-19T23:37:48.856Z,45.50
2023-05-19T23:42:50.404Z,45.55
2023-05-19T23:47:52.133Z,45.65
2023-05-19T23:52:53.684Z,45.70
2023-05-19T23:57:55.257Z,45.71
